createdAt,value
2017-09-15T09:27:42.756Z,1006.91
2017-09-15T09:28:51.603Z,1006.86
2017-09-15T09:30:00.751Z,1006.94
2017-09-15T09:31:09.596Z,1006.95
2017-09-15T09:32:18.541Z,1006.92
2017-09-15T09:33:27.378Z,1006.83
2017-09-15T09:34:36.216Z,1006.85
2017-09-15T09:35:45.058Z,1006.85
2017-09-15T09:36:54.059Z,1006.84
2017-09-15T09:38:02.894Z,1006.88
2017-09-15T09:39:11.731Z,1006.87
2017-09-15T09:40:20.572Z,1006.91
2017-09-15T09:41:29.434Z,1006.93
2017-09-15T09:42:38.873Z,1006.93
2017-09-15T09:43:48.085Z,1006.94
2017-09-15T09:44:57.504Z,1006.95
2017-09-15T09:46:06.834Z,1006.93
2017-09-15T09:47:16.170Z,1006.93
2017-09-15T09:48:25.365Z,1006.92
2017-09-15T09:49:34.905Z,1006.91
2017-09-15T09:50:44.326Z,1006.88
2017-09-15T09:51:53.163Z,1006.88
2017-09-15T09:53:02.001Z,1006.9
2017-09-15T09:54:10.907Z,1006.88
2017-09-15T09:55:20.699Z,1006.91
2017-09-15T09:56:29.539Z,1006.87
2017-09-15T09:57:38.378Z,1006.93
2017-09-15T09:58:47.209Z,1006.93
2017-09-15T09:59:56.047Z,1006.88
2017-09-15T10:01:04.882Z,1006.9
2017-09-15T10:02:13.722Z,1006.94
2017-09-15T10:03:22.565Z,1006.79
2017-09-15T10:04:31.396Z,1006.8
2017-09-15T10:05:40.233Z,1006.72
2017-09-15T10:06:49.073Z,1006.67
2017-09-15T10:07:57.909Z,1006.75
2017-09-15T10:09:06.745Z,1006.81
2017-09-15T10:10:15.910Z,1006.71
2017-09-15T10:11:24.748Z,1006.81
2017-09-15T10:12:33.605Z,1006.81
2017-09-15T10:13:42.448Z,1006.79
2017-09-15T10:14:51.287Z,1006.87
2017-09-15T10:16:00.122Z,1006.83
2017-09-15T10:17:08.955Z,1006.79
2017-09-15T10:18:17.792Z,1006.75
2017-09-15T10:19:26.628Z,1006.77
2017-09-15T10:20:35.469Z,1006.82
2017-09-15T10:21:44.311Z,1006.8
2017-09-15T10:22:53.471Z,1006.83
2017-09-15T10:24:02.308Z,1006.85
2017-09-15T10:25:11.142Z,1006.78
2017-09-15T10:26:19.975Z,1006.85
2017-09-15T10:27:28.814Z,1006.84
2017-09-15T10:28:37.655Z,1006.93
2017-09-15T10:29:46.815Z,1006.86
2017-09-15T10:30:55.660Z,1006.9
2017-09-15T10:32:04.488Z,1006.97
2017-09-15T10:33:13.646Z,1006.86
2017-09-15T10:34:22.491Z,1006.91
2017-09-15T10:35:31.334Z,1006.93
2017-09-15T10:36:40.166Z,1006.9
2017-09-15T10:37:49.001Z,1006.96
2017-09-15T10:38:57.838Z,1006.89
2017-09-15T10:40:06.672Z,1006.93
2017-09-15T10:41:15.508Z,1006.96
2017-09-15T10:42:24.357Z,1006.92
2017-09-15T10:43:33.182Z,1006.93
2017-09-15T10:44:42.022Z,1006.89
2017-09-15T10:45:50.853Z,1006.92
2017-09-15T10:46:59.691Z,1006.85
2017-09-15T10:48:08.530Z,1006.97
2017-09-15T10:49:17.373Z,1006.89
2017-09-15T10:50:26.204Z,1006.96
2017-09-15T10:51:35.041Z,1006.91
2017-09-15T10:52:43.881Z,1006.88
2017-09-15T10:53:52.718Z,1006.91
2017-09-15T10:55:01.559Z,1006.93
2017-09-15T10:56:10.393Z,1006.9
2017-09-15T10:57:19.233Z,1006.9
2017-09-15T10:58:28.071Z,1006.95
2017-09-15T10:59:36.907Z,1006.95
2017-09-15T11:00:45.739Z,1006.94
2017-09-15T11:01:54.574Z,1006.91
2017-09-15T11:03:03.415Z,1006.95
2017-09-15T11:04:12.572Z,1007
2017-09-15T11:05:21.409Z,1006.92
2017-09-15T11:06:30.243Z,1007
2017-09-15T11:07:39.081Z,1006.95
2017-09-15T11:08:47.921Z,1006.95
2017-09-15T11:09:56.788Z,1006.93
2017-09-15T11:11:05.598Z,1006.85
2017-09-15T11:12:14.430Z,1006.89
2017-09-15T11:13:23.266Z,1007.01
2017-09-15T11:14:32.097Z,1006.94
2017-09-15T11:15:40.938Z,1006.94
2017-09-15T11:16:49.779Z,1006.91
2017-09-15T11:17:58.615Z,1006.95
2017-09-15T11:19:07.449Z,1006.95
2017-09-15T11:20:16.287Z,1006.95
2017-09-15T11:21:25.127Z,1006.94
2017-09-15T11:22:33.965Z,1006.92
2017-09-15T11:23:42.806Z,1006.92
2017-09-15T11:24:51.643Z,1006.9
2017-09-15T11:26:00.481Z,1006.97
2017-09-15T11:27:09.316Z,1007.01
2017-09-15T11:28:18.153Z,1006.96
2017-09-15T11:29:26.994Z,1007.01
2017-09-15T11:30:35.834Z,1006.93
2017-09-15T11:31:44.673Z,1007
2017-09-15T11:32:53.510Z,1006.95
2017-09-15T11:34:02.674Z,1006.96
2017-09-15T11:35:11.508Z,1006.99
2017-09-15T11:36:20.349Z,1006.99
2017-09-15T11:37:29.182Z,1006.97
2017-09-15T11:38:38.029Z,1006.99
2017-09-15T11:39:46.866Z,1006.95
2017-09-15T11:40:55.705Z,1006.96
2017-09-15T11:42:04.534Z,1006.96
2017-09-15T11:43:13.369Z,1006.95
2017-09-15T11:44:22.208Z,1006.95
2017-09-15T11:45:31.043Z,1006.94
2017-09-15T11:46:40.208Z,1006.91
2017-09-15T11:47:49.042Z,1006.94
2017-09-15T11:48:57.883Z,1006.93
2017-09-15T11:50:06.726Z,1006.95
2017-09-15T11:51:15.560Z,1006.96
2017-09-15T11:52:24.401Z,1007
2017-09-15T11:53:33.237Z,1006.97
2017-09-15T11:54:42.075Z,1006.95
2017-09-15T11:55:50.908Z,1006.98
2017-09-15T11:56:59.750Z,1006.96
2017-09-15T11:58:08.588Z,1006.88
2017-09-15T11:59:17.428Z,1006.88
2017-09-15T12:00:26.270Z,1006.86
2017-09-15T12:01:35.102Z,1006.86
2017-09-15T12:02:43.939Z,1006.88
2017-09-15T12:03:52.774Z,1006.85
2017-09-15T12:05:01.613Z,1006.89
2017-09-15T12:06:10.446Z,1006.88
2017-09-15T12:07:19.287Z,1006.92
2017-09-15T12:08:28.122Z,1006.89
2017-09-15T12:09:36.957Z,1006.86
2017-09-15T12:10:45.795Z,1006.89
2017-09-15T12:11:54.632Z,1006.89
2017-09-15T12:13:03.799Z,1006.86
2017-09-15T12:14:12.635Z,1006.94
2017-09-15T12:15:21.468Z,1006.91
2017-09-15T12:16:30.313Z,1006.91
2017-09-15T12:17:39.147Z,1006.9
2017-09-15T12:18:47.990Z,1006.91
2017-09-15T12:19:56.823Z,1006.91
2017-09-15T12:21:05.666Z,1006.89
2017-09-15T12:22:14.498Z,1006.86
2017-09-15T12:23:23.336Z,1006.83
2017-09-15T12:24:32.174Z,1006.83
2017-09-15T12:25:41.012Z,1006.82
2017-09-15T12:26:49.850Z,1006.83
2017-09-15T12:27:58.692Z,1006.81
2017-09-15T12:29:07.527Z,1006.83
2017-09-15T12:30:16.361Z,1006.79
2017-09-15T12:31:25.197Z,1006.78
2017-09-15T12:32:34.034Z,1006.77
2017-09-15T12:33:42.878Z,1006.8
2017-09-15T12:34:51.714Z,1006.81
2017-09-15T12:36:00.550Z,1006.76
2017-09-15T12:37:09.386Z,1006.74
2017-09-15T12:38:18.224Z,1006.69
2017-09-15T12:39:27.067Z,1006.68
2017-09-15T12:40:35.901Z,1006.62
2017-09-15T12:41:44.732Z,1006.7
2017-09-15T12:42:53.571Z,1006.65
2017-09-15T12:44:02.410Z,1006.64
2017-09-15T12:45:11.251Z,1006.65
2017-09-15T12:46:20.092Z,1006.66
2017-09-15T12:47:28.930Z,1006.61
2017-09-15T12:48:37.763Z,1006.65
2017-09-15T12:49:46.937Z,1006.62
2017-09-15T12:50:55.770Z,1006.6
2017-09-15T12:52:04.618Z,1006.73
2017-09-15T12:53:13.453Z,1006.7
2017-09-15T12:54:22.285Z,1006.66
2017-09-15T12:55:31.125Z,1006.71
2017-09-15T12:56:39.962Z,1006.65
2017-09-15T12:57:48.801Z,1006.73
2017-09-15T12:58:57.644Z,1006.64
2017-09-15T13:00:06.486Z,1006.71
2017-09-15T13:01:15.319Z,1006.68
2017-09-15T13:02:24.161Z,1006.61
2017-09-15T13:03:33.001Z,1006.6
2017-09-15T13:04:41.841Z,1006.63
2017-09-15T13:05:50.678Z,1006.64
2017-09-15T13:06:59.528Z,1006.61
2017-09-15T13:08:08.357Z,1006.62
2017-09-15T13:09:17.194Z,1006.59
2017-09-15T13:10:26.037Z,1006.59
2017-09-15T13:11:34.879Z,1006.66
2017-09-15T13:12:43.716Z,1006.62
2017-09-15T13:13:52.553Z,1006.59
2017-09-15T13:15:01.392Z,1006.56
2017-09-15T13:16:10.230Z,1006.55
2017-09-15T13:17:19.065Z,1006.55
2017-09-15T13:18:27.907Z,1006.55
2017-09-15T13:19:36.742Z,1006.59
2017-09-15T13:20:45.582Z,1006.59
2017-09-15T13:21:54.420Z,1006.55
2017-09-15T13:23:03.260Z,1006.52
2017-09-15T13:24:12.100Z,1006.5
2017-09-15T13:25:20.939Z,1006.53
2017-09-15T13:26:29.770Z,1006.5
2017-09-15T13:27:38.933Z,1006.51
2017-09-15T13:28:47.777Z,1006.49
2017-09-15T13:29:56.611Z,1006.47
2017-09-15T13:31:05.453Z,1006.5
2017-09-15T13:32:14.291Z,1006.51
2017-09-15T13:33:23.134Z,1006.51
2017-09-15T13:34:31.969Z,1006.53
2017-09-15T13:35:40.810Z,1006.51
2017-09-15T13:36:49.645Z,1006.54
2017-09-15T13:37:58.483Z,1006.55
2017-09-15T13:39:07.327Z,1006.44
2017-09-15T13:40:16.159Z,1006.43
2017-09-15T13:41:24.999Z,1006.42
2017-09-15T13:42:33.832Z,1006.43
2017-09-15T13:43:42.667Z,1006.45
2017-09-15T13:44:51.510Z,1006.44
2017-09-15T13:46:00.353Z,1006.44
2017-09-15T13:47:09.200Z,1006.41
2017-09-15T13:48:18.029Z,1006.4
2017-09-15T13:49:26.868Z,1006.42
2017-09-15T13:50:35.703Z,1006.4
2017-09-15T13:51:44.545Z,1006.4
2017-09-15T13:52:53.384Z,1006.35
2017-09-15T13:54:02.219Z,1006.39
2017-09-15T13:55:11.058Z,1006.39
2017-09-15T13:56:19.892Z,1006.36
2017-09-15T13:57:29.055Z,1006.38
2017-09-15T13:58:38.223Z,1006.44
2017-09-15T13:59:47.060Z,1006.36
2017-09-15T14:00:55.893Z,1006.36
2017-09-15T14:02:04.726Z,1006.35
2017-09-15T14:03:13.896Z,1006.36
2017-09-15T14:04:22.729Z,1006.35
2017-09-15T14:05:31.571Z,1006.33
2017-09-15T14:06:40.411Z,1006.34
2017-09-15T14:07:49.246Z,1006.36
2017-09-15T14:08:58.081Z,1006.37
2017-09-15T14:10:06.922Z,1006.32
2017-09-15T14:11:15.760Z,1006.34
2017-09-15T14:12:24.598Z,1006.35
2017-09-15T14:13:33.437Z,1006.36
2017-09-15T14:14:42.273Z,1006.35
2017-09-15T14:15:51.112Z,1006.34
2017-09-15T14:16:59.954Z,1006.3
2017-09-15T14:18:08.788Z,1006.27
2017-09-15T14:19:17.628Z,1006.34
2017-09-15T14:20:26.466Z,1006.33
2017-09-15T14:21:35.306Z,1006.24
2017-09-15T14:22:44.141Z,1006.27
2017-09-15T14:23:52.983Z,1006.27
2017-09-15T14:25:01.817Z,1006.29
2017-09-15T14:26:10.856Z,1006.28
2017-09-15T14:27:19.697Z,1006.28
2017-09-15T14:28:28.529Z,1006.39
2017-09-15T14:29:37.366Z,1006.36
2017-09-15T14:30:46.208Z,1006.39
2017-09-15T14:31:55.046Z,1006.41
2017-09-15T14:33:03.882Z,1006.57
2017-09-15T14:34:12.718Z,1006.77
2017-09-15T14:35:21.554Z,1006.81
2017-09-15T14:36:30.391Z,1006.83
2017-09-15T14:37:39.427Z,1006.78
2017-09-15T14:38:48.593Z,1006.74
2017-09-15T14:39:57.433Z,1006.76
2017-09-15T14:41:06.298Z,1006.75
2017-09-15T14:42:15.109Z,1006.75
2017-09-15T14:43:24.269Z,1006.73
2017-09-15T14:44:33.119Z,1006.73
2017-09-15T14:45:41.954Z,1006.7
2017-09-15T14:46:50.795Z,1006.64
2017-09-15T14:47:59.635Z,1006.58
2017-09-15T14:49:08.472Z,1006.56
2017-09-15T14:50:17.303Z,1006.51
2017-09-15T14:51:26.142Z,1006.5
2017-09-15T14:52:34.982Z,1006.49
2017-09-15T14:53:43.820Z,1006.46
2017-09-15T14:54:52.654Z,1006.5
2017-09-15T14:56:01.487Z,1006.48
2017-09-15T14:57:10.324Z,1006.47
2017-09-15T14:58:19.161Z,1006.46
2017-09-15T14:59:27.996Z,1006.4
2017-09-15T15:00:37.486Z,1006.31
2017-09-15T15:01:46.321Z,1006.31
2017-09-15T15:02:55.161Z,1006.28
2017-09-15T15:04:03.989Z,1006.31
2017-09-15T15:05:12.826Z,1006.27
2017-09-15T15:06:21.665Z,1006.26
2017-09-15T15:07:30.495Z,1006.31
2017-09-15T15:08:39.326Z,1006.26
2017-09-15T15:09:48.169Z,1006.23
2017-09-15T15:10:57.001Z,1006.2
2017-09-15T15:12:05.841Z,1006.21
2017-09-15T15:13:14.680Z,1006.16
2017-09-15T15:14:23.516Z,1006.19
2017-09-15T15:15:32.349Z,1006.16
2017-09-15T15:16:41.187Z,1006.15
2017-09-15T15:17:50.022Z,1006.16
2017-09-15T15:18:58.865Z,1006.18
2017-09-15T15:20:07.699Z,1006.15
2017-09-15T15:21:16.534Z,1006.12
2017-09-15T15:22:25.372Z,1006.15
2017-09-15T15:23:34.208Z,1006.1
2017-09-15T15:24:43.043Z,1006.11
2017-09-15T15:25:51.882Z,1006.07
2017-09-15T15:27:00.716Z,1006.06
2017-09-15T15:28:09.553Z,1006.06
2017-09-15T15:29:18.712Z,1006.06
2017-09-15T15:30:27.548Z,1006.03
2017-09-15T15:31:36.381Z,1006.01
2017-09-15T15:32:45.223Z,1006.01
2017-09-15T15:33:54.057Z,1006.01
2017-09-15T15:35:02.891Z,1005.96
2017-09-15T15:36:11.729Z,1006
2017-09-15T15:37:20.566Z,1005.97
2017-09-15T15:38:29.404Z,1005.99
2017-09-15T15:39:38.561Z,1005.99
2017-09-15T15:40:47.392Z,1006.01
2017-09-15T15:41:56.233Z,1006.01
2017-09-15T15:43:05.068Z,1005.99
2017-09-15T15:44:13.901Z,1005.99
2017-09-15T15:45:22.733Z,1006
2017-09-15T15:46:31.576Z,1005.99
2017-09-15T15:47:40.407Z,1006
2017-09-15T15:48:49.248Z,1005.98
2017-09-15T15:49:58.082Z,1006.01
2017-09-15T15:51:06.917Z,1005.96
2017-09-15T15:52:15.749Z,1005.94
2017-09-15T15:53:24.592Z,1005.97
2017-09-15T15:54:33.425Z,1005.97
2017-09-15T15:55:42.265Z,1005.97
2017-09-15T15:56:51.100Z,1005.99
2017-09-15T15:57:59.935Z,1005.97
2017-09-15T15:59:08.770Z,1005.99
2017-09-15T16:00:17.611Z,1005.94
2017-09-15T16:01:26.441Z,1005.96
2017-09-15T16:02:35.283Z,1005.98
2017-09-15T16:03:44.118Z,1005.97
2017-09-15T16:04:52.950Z,1005.98
2017-09-15T16:06:01.789Z,1005.95
2017-09-15T16:07:10.628Z,1005.95
2017-09-15T16:08:19.460Z,1005.98
2017-09-15T16:09:28.297Z,1005.96
2017-09-15T16:10:37.134Z,1005.93
2017-09-15T16:11:45.972Z,1005.93
2017-09-15T16:12:54.807Z,1005.89
2017-09-15T16:14:03.643Z,1005.87
2017-09-15T16:15:12.481Z,1005.9
2017-09-15T16:16:21.318Z,1005.9
2017-09-15T16:17:30.153Z,1005.86
2017-09-15T16:18:38.987Z,1005.85
2017-09-15T16:19:48.476Z,1005.84
2017-09-15T16:20:57.316Z,1005.86
2017-09-15T16:22:06.153Z,1005.87
2017-09-15T16:23:14.988Z,1005.84
2017-09-15T16:24:23.821Z,1005.88
2017-09-15T16:25:32.655Z,1005.86
2017-09-15T16:26:41.488Z,1005.87
2017-09-15T16:27:50.329Z,1005.86
2017-09-15T16:28:59.168Z,1005.88
2017-09-15T16:30:08.001Z,1005.88
2017-09-15T16:31:16.840Z,1005.86
2017-09-15T16:32:25.673Z,1005.84
2017-09-15T16:33:34.507Z,1005.83
2017-09-15T16:34:43.349Z,1005.83
2017-09-15T16:35:52.175Z,1005.86
2017-09-15T16:37:01.011Z,1005.88
2017-09-15T16:38:09.847Z,1005.86
2017-09-15T16:39:18.688Z,1005.86
2017-09-15T16:40:27.525Z,1005.91
2017-09-15T16:41:36.356Z,1005.88
2017-09-15T16:42:45.188Z,1005.87
2017-09-15T16:43:54.021Z,1005.88
2017-09-15T16:45:02.860Z,1005.9
2017-09-15T16:46:11.697Z,1005.86
2017-09-15T16:47:20.532Z,1005.87
2017-09-15T16:48:29.370Z,1005.87
2017-09-15T16:49:38.204Z,1005.88
2017-09-15T16:50:47.043Z,1005.88
2017-09-15T16:51:55.878Z,1005.87
2017-09-15T16:53:04.718Z,1005.86
2017-09-15T16:54:13.548Z,1005.9
2017-09-15T16:55:22.384Z,1005.87
2017-09-15T16:56:31.220Z,1005.88
2017-09-15T16:57:40.057Z,1005.88
2017-09-15T16:58:48.896Z,1005.9
2017-09-15T16:59:57.732Z,1005.89
2017-09-15T17:01:06.572Z,1005.85
2017-09-15T17:02:15.405Z,1005.94
2017-09-15T17:03:24.243Z,1005.87
2017-09-15T17:04:33.075Z,1005.88
2017-09-15T17:05:41.908Z,1005.88
2017-09-15T17:06:50.750Z,1005.9
2017-09-15T17:07:59.906Z,1005.92
2017-09-15T17:09:08.758Z,1005.95
2017-09-15T17:10:17.594Z,1005.94
2017-09-15T17:11:26.753Z,1005.94
2017-09-15T17:12:35.585Z,1005.92
2017-09-15T17:13:44.420Z,1005.89
2017-09-15T17:14:53.254Z,1005.92
2017-09-15T17:16:02.091Z,1005.94
2017-09-15T17:17:10.928Z,1005.91
2017-09-15T17:18:19.759Z,1005.89
2017-09-15T17:19:28.602Z,1005.96
2017-09-15T17:20:37.440Z,1005.97
2017-09-15T17:21:46.277Z,1005.96
2017-09-15T17:22:55.112Z,1005.98
2017-09-15T17:24:03.948Z,1005.96
2017-09-15T17:25:12.784Z,1005.97
2017-09-15T17:26:21.624Z,1006
2017-09-15T17:27:30.462Z,1005.99
2017-09-15T17:28:39.305Z,1005.99
2017-09-15T17:29:48.139Z,1006
2017-09-15T17:30:56.970Z,1005.99
2017-09-15T17:32:05.812Z,1005.97
2017-09-15T17:33:14.659Z,1006.03
2017-09-15T17:34:23.481Z,1006.01
2017-09-15T17:35:32.313Z,1006.01
2017-09-15T17:36:41.154Z,1006.01
2017-09-15T17:37:49.989Z,1006.06
2017-09-15T17:38:58.823Z,1006.05
2017-09-15T17:40:07.663Z,1006.04
2017-09-15T17:41:16.496Z,1006.1
2017-09-15T17:42:25.325Z,1006.06
2017-09-15T17:43:34.162Z,1006.07
2017-09-15T17:44:42.995Z,1006.1
2017-09-15T17:45:51.834Z,1006.13
2017-09-15T17:47:00.671Z,1006.12
2017-09-15T17:48:09.505Z,1006.15
2017-09-15T17:49:18.344Z,1006.14
2017-09-15T17:50:27.183Z,1006.15
2017-09-15T17:51:36.017Z,1006.16
2017-09-15T17:52:44.853Z,1006.18
2017-09-15T17:53:53.689Z,1006.23
2017-09-15T17:55:02.523Z,1006.24
2017-09-15T17:56:11.361Z,1006.24
2017-09-15T17:57:20.201Z,1006.23
2017-09-15T17:58:29.036Z,1006.26
2017-09-15T17:59:37.872Z,1006.24
2017-09-15T18:00:46.706Z,1006.24
2017-09-15T18:01:55.539Z,1006.3
2017-09-15T18:03:04.375Z,1006.34
2017-09-15T18:04:13.208Z,1006.29
2017-09-15T18:05:22.045Z,1006.32
2017-09-15T18:06:30.883Z,1006.3
2017-09-15T18:07:39.719Z,1006.31
2017-09-15T18:08:48.554Z,1006.32
2017-09-15T18:09:57.392Z,1006.31
2017-09-15T18:11:06.227Z,1006.34
2017-09-15T18:12:15.061Z,1006.33
2017-09-15T18:13:23.895Z,1006.31
2017-09-15T18:14:32.742Z,1006.34
2017-09-15T18:15:41.582Z,1006.35
2017-09-15T18:16:50.418Z,1006.36
2017-09-15T18:17:59.255Z,1006.38
2017-09-15T18:19:08.092Z,1006.35
2017-09-15T18:20:16.923Z,1006.4
2017-09-15T18:21:25.765Z,1006.39
2017-09-15T18:22:34.604Z,1006.41
2017-09-15T18:23:43.435Z,1006.39
2017-09-15T18:24:52.274Z,1006.37
2017-09-15T18:26:01.108Z,1006.37
2017-09-15T18:27:09.946Z,1006.39
2017-09-15T18:28:18.777Z,1006.37
2017-09-15T18:29:27.616Z,1006.41
2017-09-15T18:30:36.446Z,1006.4
2017-09-15T18:31:45.285Z,1006.45
2017-09-15T18:32:54.122Z,1006.44
2017-09-15T18:34:02.954Z,1006.47
2017-09-15T18:35:11.796Z,1006.43
2017-09-15T18:36:20.630Z,1006.41
2017-09-15T18:37:29.461Z,1006.46
2017-09-15T18:38:38.296Z,1006.44
2017-09-15T18:39:47.140Z,1006.43
2017-09-15T18:40:56.297Z,1006.4
2017-09-15T18:42:05.135Z,1006.38
2017-09-15T18:43:13.970Z,1006.37
2017-09-15T18:44:22.800Z,1006.39
2017-09-15T18:45:31.639Z,1006.42
2017-09-15T18:46:40.474Z,1006.41
2017-09-15T18:47:49.309Z,1006.41
2017-09-15T18:48:58.142Z,1006.4
2017-09-15T18:50:06.977Z,1006.39
2017-09-15T18:51:15.813Z,1006.4
2017-09-15T18:52:24.983Z,1006.4
2017-09-15T18:53:33.821Z,1006.41
2017-09-15T18:54:42.655Z,1006.42
2017-09-15T18:55:51.486Z,1006.38
2017-09-15T18:57:00.324Z,1006.38
2017-09-15T18:58:09.481Z,1006.37
2017-09-15T18:59:18.325Z,1006.38
2017-09-15T19:00:27.486Z,1006.36
2017-09-15T19:01:36.317Z,1006.36
2017-09-15T19:02:45.153Z,1006.33
2017-09-15T19:03:53.992Z,1006.33
2017-09-15T19:05:02.831Z,1006.31
2017-09-15T19:06:11.666Z,1006.34
2017-09-15T19:07:20.505Z,1006.35
2017-09-15T19:08:29.353Z,1006.32
2017-09-15T19:09:38.190Z,1006.31
2017-09-15T19:10:47.032Z,1006.36
2017-09-15T19:11:55.864Z,1006.36
2017-09-15T19:13:04.702Z,1006.32
2017-09-15T19:14:13.534Z,1006.3
2017-09-15T19:15:22.369Z,1006.33
2017-09-15T19:16:31.211Z,1006.34
2017-09-15T19:17:40.050Z,1006.33
2017-09-15T19:18:48.889Z,1006.32
2017-09-15T19:19:57.721Z,1006.31
2017-09-15T19:21:06.550Z,1006.32
2017-09-15T19:22:15.389Z,1006.32
2017-09-15T19:23:24.226Z,1006.29
2017-09-15T19:24:33.071Z,1006.32
2017-09-15T19:25:41.902Z,1006.31
2017-09-15T19:26:50.742Z,1006.3
2017-09-15T19:27:59.583Z,1006.3
2017-09-15T19:29:08.419Z,1006.29
2017-09-15T19:30:17.260Z,1006.27
2017-09-15T19:31:26.095Z,1006.27
2017-09-15T19:32:34.927Z,1006.27
2017-09-15T19:33:43.766Z,1006.25
2017-09-15T19:34:52.603Z,1006.3
2017-09-15T19:36:01.441Z,1006.3
2017-09-15T19:37:10.276Z,1006.26
2017-09-15T19:38:19.107Z,1006.29
2017-09-15T19:39:27.935Z,1006.29
2017-09-15T19:40:37.097Z,1006.29
2017-09-15T19:41:45.932Z,1006.28
2017-09-15T19:42:54.769Z,1006.29
2017-09-15T19:44:03.605Z,1006.25
2017-09-15T19:45:12.437Z,1006.25
2017-09-15T19:46:21.276Z,1006.24
2017-09-15T19:47:30.115Z,1006.22
2017-09-15T19:48:38.950Z,1006.26
2017-09-15T19:49:47.788Z,1006.27
2017-09-15T19:50:56.622Z,1006.22
2017-09-15T19:52:05.458Z,1006.27
2017-09-15T19:53:14.292Z,1006.26
2017-09-15T19:54:23.138Z,1006.28
2017-09-15T19:55:32.302Z,1006.31
2017-09-15T19:56:41.138Z,1006.34
2017-09-15T19:57:49.978Z,1006.33
2017-09-15T19:58:58.812Z,1006.31
2017-09-15T20:00:07.653Z,1006.36
2017-09-15T20:01:16.486Z,1006.3
2017-09-15T20:02:25.318Z,1006.33
2017-09-15T20:03:34.150Z,1006.32
2017-09-15T20:04:42.989Z,1006.31
2017-09-15T20:05:51.832Z,1006.29
2017-09-15T20:07:00.662Z,1006.27
2017-09-15T20:08:09.499Z,1006.35
2017-09-15T20:09:18.332Z,1006.32
2017-09-15T20:10:27.170Z,1006.34
2017-09-15T20:11:36.006Z,1006.31
2017-09-15T20:12:44.840Z,1006.29
2017-09-15T20:13:53.677Z,1006.33
2017-09-15T20:15:02.511Z,1006.34
2017-09-15T20:16:11.345Z,1006.33
2017-09-15T20:17:20.185Z,1006.32
2017-09-15T20:18:29.020Z,1006.3
2017-09-15T20:19:38.191Z,1006.28
2017-09-15T20:20:47.025Z,1006.34
2017-09-15T20:21:55.872Z,1006.31
2017-09-15T20:23:04.715Z,1006.3
2017-09-15T20:24:13.548Z,1006.32
2017-09-15T20:25:22.383Z,1006.28
2017-09-15T20:26:31.219Z,1006.31
2017-09-15T20:27:40.053Z,1006.27
2017-09-15T20:28:48.886Z,1006.27
2017-09-15T20:29:57.726Z,1006.27
2017-09-15T20:31:06.563Z,1006.28
2017-09-15T20:32:15.401Z,1006.3
2017-09-15T20:33:24.236Z,1006.27
2017-09-15T20:34:33.069Z,1006.29
2017-09-15T20:35:41.908Z,1006.3
2017-09-15T20:36:50.746Z,1006.31
2017-09-15T20:37:59.579Z,1006.32
2017-09-15T20:39:08.419Z,1006.3
2017-09-15T20:40:17.258Z,1006.3
2017-09-15T20:41:26.093Z,1006.33
2017-09-15T20:42:34.930Z,1006.31
2017-09-15T20:43:43.769Z,1006.3
2017-09-15T20:44:52.605Z,1006.3
2017-09-15T20:46:01.435Z,1006.3
2017-09-15T20:47:10.274Z,1006.3
2017-09-15T20:48:19.109Z,1006.31
2017-09-15T20:49:27.950Z,1006.36
2017-09-15T20:50:36.787Z,1006.33
2017-09-15T20:51:45.621Z,1006.35
2017-09-15T20:52:54.458Z,1006.34
2017-09-15T20:54:03.292Z,1006.34
2017-09-15T20:55:12.124Z,1006.35
2017-09-15T20:56:20.960Z,1006.34
2017-09-15T20:57:29.804Z,1006.37
2017-09-15T20:58:38.638Z,1006.33
2017-09-15T20:59:47.472Z,1006.35
2017-09-15T21:00:56.662Z,1006.34
2017-09-15T21:02:05.472Z,1006.37
2017-09-15T21:03:14.310Z,1006.35
2017-09-15T21:04:23.141Z,1006.33
2017-09-15T21:05:31.979Z,1006.36
2017-09-15T21:06:40.818Z,1006.35
2017-09-15T21:07:49.663Z,1006.33
2017-09-15T21:08:58.491Z,1006.37
2017-09-15T21:10:07.332Z,1006.39
2017-09-15T21:11:16.192Z,1006.41
2017-09-15T21:12:25.001Z,1006.38
2017-09-15T21:13:33.837Z,1006.38
2017-09-15T21:14:42.671Z,1006.39
2017-09-15T21:15:51.506Z,1006.41
2017-09-15T21:17:00.346Z,1006.44
2017-09-15T21:18:09.180Z,1006.49
2017-09-15T21:19:18.016Z,1006.47
2017-09-15T21:20:26.856Z,1006.48
2017-09-15T21:21:35.688Z,1006.49
2017-09-15T21:22:44.519Z,1006.52
2017-09-15T21:23:53.680Z,1006.57
2017-09-15T21:25:02.512Z,1006.55
2017-09-15T21:26:11.354Z,1006.57
2017-09-15T21:27:20.191Z,1006.54
2017-09-15T21:28:29.022Z,1006.53
2017-09-15T21:29:37.865Z,1006.55
2017-09-15T21:30:46.702Z,1006.52
2017-09-15T21:31:55.535Z,1006.51
2017-09-15T21:33:04.371Z,1006.5
2017-09-15T21:34:13.208Z,1006.5
2017-09-15T21:35:22.723Z,1006.51
2017-09-15T21:36:31.557Z,1006.54
2017-09-15T21:37:40.727Z,1006.51
2017-09-15T21:38:49.558Z,1006.54
2017-09-15T21:39:58.397Z,1006.5
2017-09-15T21:41:07.231Z,1006.52
2017-09-15T21:42:16.068Z,1006.5
2017-09-15T21:43:24.900Z,1006.49
2017-09-15T21:44:33.737Z,1006.48
2017-09-15T21:45:42.575Z,1006.51
2017-09-15T21:46:51.410Z,1006.5
2017-09-15T21:48:00.251Z,1006.49
2017-09-15T21:49:09.408Z,1006.5
2017-09-15T21:50:18.247Z,1006.48
2017-09-15T21:51:27.080Z,1006.45
2017-09-15T21:52:35.921Z,1006.41
2017-09-15T21:53:44.754Z,1006.37
2017-09-15T21:54:53.593Z,1006.35
2017-09-15T21:56:02.426Z,1006.35
2017-09-15T21:57:11.259Z,1006.37
2017-09-15T21:58:20.097Z,1006.36
2017-09-15T21:59:28.939Z,1006.4
2017-09-15T22:00:37.771Z,1006.38
2017-09-15T22:01:46.609Z,1006.31
2017-09-15T22:02:55.444Z,1006.31
2017-09-15T22:04:04.275Z,1006.31
2017-09-15T22:05:13.111Z,1006.28
2017-09-15T22:06:21.952Z,1006.26
2017-09-15T22:07:30.785Z,1006.24
2017-09-15T22:08:39.625Z,1006.22
2017-09-15T22:09:48.458Z,1006.17
2017-09-15T22:10:57.293Z,1006.16
2017-09-15T22:12:06.132Z,1006.17
2017-09-15T22:13:14.969Z,1006.15
2017-09-15T22:14:23.802Z,1006.14
2017-09-15T22:15:32.640Z,1006.1
2017-09-15T22:16:41.480Z,1006.11
2017-09-15T22:17:50.313Z,1006.11
2017-09-15T22:18:59.150Z,1006.1
2017-09-15T22:20:07.999Z,1006.05
2017-09-15T22:21:16.840Z,1006.05
2017-09-15T22:22:25.675Z,1006.06
2017-09-15T22:23:34.516Z,1006.04
2017-09-15T22:24:43.351Z,1006.07
2017-09-15T22:25:52.185Z,1006.04
2017-09-15T22:27:01.024Z,1006.05
2017-09-15T22:28:09.861Z,1006.02
2017-09-15T22:29:18.695Z,1006.02
2017-09-15T22:30:27.531Z,1005.99
2017-09-15T22:31:36.365Z,1006
2017-09-15T22:32:45.244Z,1005.98
2017-09-15T22:33:54.171Z,1005.99
2017-09-15T22:35:03.005Z,1005.95
2017-09-15T22:36:11.836Z,1005.92
2017-09-15T22:37:20.787Z,1005.97
2017-09-15T22:38:29.619Z,1005.94
2017-09-15T22:39:38.558Z,1005.96
2017-09-15T22:40:47.695Z,1005.93
2017-09-15T22:41:56.528Z,1005.91
2017-09-15T22:43:05.363Z,1005.97
2017-09-15T22:44:14.258Z,1005.92
2017-09-15T22:45:23.432Z,1005.92
2017-09-15T22:46:32.270Z,1005.92
2017-09-15T22:47:41.158Z,1005.91
2017-09-15T22:48:50.340Z,1005.96
2017-09-15T22:49:59.177Z,1005.97
2017-09-15T22:51:08.015Z,1005.95
2017-09-15T22:52:16.887Z,1005.92
2017-09-15T22:53:26.025Z,1005.95
2017-09-15T22:54:34.859Z,1005.98
2017-09-15T22:55:43.697Z,1006.01
2017-09-15T22:56:52.531Z,1006.01
2017-09-15T22:58:01.754Z,1006.01
2017-09-15T22:59:11.118Z,1006.05
2017-09-15T23:00:21.321Z,1006.08
2017-09-15T23:01:30.337Z,1006.1
2017-09-15T23:02:39.211Z,1006.17
2017-09-15T23:03:48.182Z,1006.2
2017-09-15T23:04:57.240Z,1006.14
2017-09-15T23:06:06.235Z,1006.17
2017-09-15T23:07:15.165Z,1006.14
2017-09-15T23:08:24.592Z,1006.19
2017-09-15T23:09:33.439Z,1006.18
2017-09-15T23:10:42.702Z,1006.16
2017-09-15T23:11:51.535Z,1006.21
2017-09-15T23:13:00.364Z,1006.19
2017-09-15T23:14:09.203Z,1006.22
2017-09-15T23:15:18.091Z,1006.21
2017-09-15T23:16:28.130Z,1006.24
2017-09-15T23:17:37.405Z,1006.26
2017-09-15T23:18:46.239Z,1006.26
2017-09-15T23:19:55.400Z,1006.26
2017-09-15T23:21:04.574Z,1006.26
2017-09-15T23:22:13.804Z,1006.26
2017-09-15T23:23:23.027Z,1006.25